createdAt,value
2022-10-04T00:01:58.899Z,2.00
2022-10-04T00:04:27.537Z,2.20
2022-10-04T00:06:58.849Z,1.30
2022-10-04T00:09:28.671Z,2.43
2022-10-04T00:11:56.949Z,1.60
2022-10-04T00:14:27.242Z,1.50
2022-10-04T00:16:56.548Z,2.67
2022-10-04T00:19:45.342Z,1.30
2022-10-04T00:22:18.504Z,1.30
2022-10-04T00:25:23.165Z,1.40
2022-10-04T00:28:16.498Z,1.43
2022-10-04T00:30:44.521Z,1.67
2022-10-04T00:33:13.852Z,1.20
2022-10-04T00:35:51.744Z,1.50
2022-10-04T00:38:26.068Z,1.50
2022-10-04T00:40:57.251Z,1.53
2022-10-04T00:43:26.407Z,2.03
2022-10-04T00:45:55.696Z,1.20
2022-10-04T00:48:37.007Z,2.00
2022-10-04T00:51:10.465Z,1.57
2022-10-04T00:53:42.434Z,1.50
2022-10-04T00:56:12.029Z,1.60
2022-10-04T00:58:45.900Z,2.17
2022-10-04T01:01:13.811Z,2.70
2022-10-04T01:03:44.013Z,1.40
2022-10-04T01:06:12.154Z,1.83
2022-10-04T01:08:41.365Z,1.47
2022-10-04T01:11:11.519Z,2.30
2022-10-04T01:13:40.664Z,4.63
2022-10-04T01:16:12.364Z,1.97
2022-10-04T01:18:40.416Z,1.87
2022-10-04T01:21:10.926Z,2.27
2022-10-04T01:23:42.608Z,2.70
2022-10-04T01:26:38.550Z,1.73
2022-10-04T01:29:11.614Z,3.43
2022-10-04T01:31:40.616Z,2.07
2022-10-04T01:34:08.902Z,2.57
2022-10-04T01:36:37.009Z,2.17
2022-10-04T01:39:06.432Z,2.20
2022-10-04T01:41:39.871Z,5.47
2022-10-04T01:44:07.852Z,2.60
2022-10-04T01:46:37.110Z,3.40
2022-10-04T01:49:06.879Z,3.77
2022-10-04T01:51:35.917Z,3.23
2022-10-04T01:54:05.385Z,3.00
2022-10-04T01:56:38.556Z,3.73
2022-10-04T01:59:07.408Z,4.53
2022-10-04T02:01:36.730Z,3.67
2022-10-04T02:04:05.732Z,4.63
2022-10-04T02:06:38.392Z,2.83
2022-10-04T02:09:09.114Z,4.60
2022-10-04T02:11:41.463Z,5.47
2022-10-04T02:14:15.711Z,3.20
2022-10-04T02:16:44.284Z,2.70
2022-10-04T02:19:12.243Z,4.37
2022-10-04T02:21:40.464Z,4.83
2022-10-04T02:24:08.753Z,4.67
2022-10-04T02:26:38.180Z,2.53
2022-10-04T02:29:06.208Z,5.67
2022-10-04T02:31:51.687Z,4.70
2022-10-04T02:34:19.989Z,8.07
2022-10-04T02:36:52.049Z,2.73
2022-10-04T02:39:22.828Z,3.23
2022-10-04T02:41:53.124Z,3.10
2022-10-04T02:44:22.401Z,4.50
2022-10-04T02:46:52.529Z,5.03
2022-10-04T02:49:24.052Z,3.43
2022-10-04T02:51:53.066Z,4.40
2022-10-04T02:54:27.604Z,5.37
2022-10-04T02:56:57.994Z,2.63
2022-10-04T02:59:25.992Z,4.73
2022-10-04T03:01:54.807Z,2.10
2022-10-04T03:04:23.540Z,2.20
2022-10-04T03:06:51.452Z,2.40
2022-10-04T03:09:20.786Z,3.13
2022-10-04T03:11:49.712Z,2.77
2022-10-04T03:14:21.019Z,2.20
2022-10-04T03:16:49.960Z,2.47
2022-10-04T03:19:18.437Z,2.53
2022-10-04T03:21:49.149Z,1.90
2022-10-04T03:24:19.204Z,1.63
2022-10-04T03:26:47.829Z,3.50
2022-10-04T03:29:16.193Z,3.40
2022-10-04T03:31:46.569Z,1.20
2022-10-04T03:34:15.281Z,3.40
2022-10-04T03:36:43.274Z,1.70
2022-10-04T03:39:11.916Z,1.03
2022-10-04T03:41:40.586Z,0.90
2022-10-04T03:44:08.883Z,1.17
2022-10-04T03:46:36.932Z,0.77
2022-10-04T03:49:06.255Z,0.70
2022-10-04T03:51:34.149Z,0.70
2022-10-04T03:54:02.844Z,1.07
2022-10-04T03:56:32.068Z,0.80
2022-10-04T03:58:59.967Z,1.00
2022-10-04T04:01:35.608Z,0.80
2022-10-04T04:04:07.941Z,1.40
2022-10-04T04:06:38.986Z,0.90
2022-10-04T04:09:06.871Z,2.00
2022-10-04T04:11:34.746Z,1.37
2022-10-04T04:14:04.728Z,3.03
2022-10-04T04:16:32.704Z,1.80
2022-10-04T04:19:02.143Z,1.20
2022-10-04T04:21:31.462Z,0.90
2022-10-04T04:24:00.763Z,1.77
2022-10-04T04:26:35.020Z,1.17
2022-10-04T04:29:06.209Z,1.40
2022-10-04T04:31:35.229Z,1.33
2022-10-04T04:34:04.205Z,2.87
2022-10-04T04:36:34.530Z,0.87
2022-10-04T04:39:27.678Z,1.20
2022-10-04T04:41:55.595Z,0.97
2022-10-04T04:44:23.494Z,1.17
2022-10-04T04:46:51.552Z,1.20
2022-10-04T04:49:19.517Z,1.10
2022-10-04T04:51:51.549Z,0.90
2022-10-04T04:54:24.009Z,0.93
2022-10-04T04:56:52.900Z,1.03
2022-10-04T04:59:21.770Z,1.13
2022-10-04T05:01:50.327Z,1.00
2022-10-04T05:04:20.005Z,0.80
2022-10-04T05:06:50.357Z,0.80
2022-10-04T05:09:27.241Z,0.83
2022-10-04T05:11:56.074Z,2.53
2022-10-04T05:14:24.037Z,0.87
2022-10-04T05:16:52.929Z,0.80
2022-10-04T05:19:22.230Z,0.70
2022-10-04T05:21:52.804Z,0.97
2022-10-04T05:24:23.449Z,2.27
2022-10-04T05:26:52.128Z,0.60
2022-10-04T05:29:20.872Z,0.50
2022-10-04T05:31:50.210Z,0.70
2022-10-04T05:34:20.708Z,1.60
2022-10-04T05:36:58.271Z,0.53
2022-10-04T05:39:29.005Z,0.53
2022-10-04T05:42:02.807Z,0.50
2022-10-04T05:44:32.496Z,1.10
2022-10-04T05:47:00.771Z,0.60
2022-10-04T05:49:31.473Z,0.60
2022-10-04T05:52:01.255Z,0.70
2022-10-04T05:54:31.180Z,0.60
2022-10-04T05:57:15.864Z,0.50
2022-10-04T05:59:52.118Z,1.70
2022-10-04T06:02:26.066Z,0.70
2022-10-04T06:05:09.661Z,0.60
2022-10-04T06:07:42.281Z,0.40
2022-10-04T06:10:20.715Z,0.50
2022-10-04T06:12:53.602Z,0.50
2022-10-04T06:15:58.584Z,1.03
2022-10-04T06:18:46.036Z,0.40
2022-10-04T06:21:21.737Z,0.40
2022-10-04T06:23:55.228Z,0.77
2022-10-04T06:26:25.625Z,1.03
2022-10-04T06:28:56.472Z,0.50
2022-10-04T06:32:14.491Z,0.37
2022-10-04T06:35:02.029Z,0.50
2022-10-04T06:37:55.110Z,0.40
2022-10-04T06:41:04.872Z,0.80
2022-10-04T06:43:50.036Z,0.67
2022-10-04T06:46:20.025Z,0.70
2022-10-04T06:49:07.581Z,0.63
2022-10-04T06:51:44.767Z,1.27
2022-10-04T06:54:21.220Z,0.50
2022-10-04T06:57:01.002Z,1.80
2022-10-04T06:59:43.404Z,2.73
2022-10-04T07:02:14.415Z,0.90
2022-10-04T07:07:37.079Z,2.17
2022-10-04T07:10:17.576Z,0.50
2022-10-04T07:12:49.038Z,3.87
2022-10-04T07:15:20.430Z,1.77
2022-10-04T07:17:49.220Z,2.07
2022-10-04T07:20:20.622Z,0.70
2022-10-04T07:22:51.270Z,0.60
2022-10-04T07:25:21.973Z,0.70
2022-10-04T07:28:14.960Z,0.60
2022-10-04T07:30:45.925Z,1.90
2022-10-04T07:33:15.991Z,2.47
2022-10-04T07:35:46.097Z,0.70
2022-10-04T07:38:17.763Z,0.80
2022-10-04T07:41:05.032Z,0.53
2022-10-04T07:43:34.267Z,1.23
2022-10-04T07:46:05.024Z,0.70
2022-10-04T07:48:33.113Z,1.27
2022-10-04T07:51:04.543Z,1.70
2022-10-04T07:53:33.477Z,0.80
2022-10-04T07:56:07.807Z,0.90
2022-10-04T07:58:44.847Z,0.70
2022-10-04T08:01:21.188Z,2.03
2022-10-04T08:04:06.741Z,0.83
2022-10-04T08:06:36.759Z,1.30
2022-10-04T08:09:19.202Z,4.50
2022-10-04T08:11:50.210Z,1.20
2022-10-04T08:14:27.102Z,1.20
2022-10-04T08:17:02.229Z,1.17
2022-10-04T08:19:40.899Z,2.97
2022-10-04T08:22:19.420Z,1.20
2022-10-04T08:24:54.206Z,1.60
2022-10-04T08:27:32.013Z,1.73
2022-10-04T08:30:04.894Z,1.33
2022-10-04T08:32:51.084Z,0.90
2022-10-04T08:35:34.406Z,3.40
2022-10-04T08:38:19.769Z,2.33
2022-10-04T08:41:29.050Z,2.57
2022-10-04T08:44:13.287Z,1.53
2022-10-04T08:47:04.148Z,2.40
2022-10-04T08:49:53.621Z,1.30
2022-10-04T08:52:43.267Z,2.83
2022-10-04T08:55:32.289Z,2.10
2022-10-04T08:58:18.025Z,1.40
2022-10-04T09:00:57.308Z,1.83
2022-10-04T09:03:45.389Z,2.23
2022-10-04T09:06:19.856Z,3.50
2022-10-04T09:09:27.008Z,2.73
2022-10-04T09:12:36.287Z,2.20
2022-10-04T09:15:27.593Z,2.50
2022-10-04T09:17:56.459Z,3.23
2022-10-04T09:20:38.680Z,1.83
2022-10-04T09:23:22.716Z,6.70
2022-10-04T09:25:56.478Z,1.23
2022-10-04T09:28:54.837Z,3.87
2022-10-04T09:31:49.043Z,8.75
2022-10-04T09:34:35.056Z,2.27
2022-10-04T09:37:21.065Z,2.37
2022-10-04T09:40:28.711Z,3.13
2022-10-04T09:43:19.085Z,1.27
2022-10-04T09:46:04.821Z,3.17
2022-10-04T09:48:37.070Z,3.63
2022-10-04T09:51:34.604Z,8.00
2022-10-04T09:54:23.941Z,4.23
2022-10-04T09:57:06.792Z,1.07
2022-10-04T10:00:10.504Z,4.27
2022-10-04T10:02:58.930Z,4.13
2022-10-04T10:05:32.245Z,2.73
2022-10-04T10:08:02.041Z,1.47
2022-10-04T10:10:52.860Z,7.07
2022-10-04T10:13:43.164Z,3.07
2022-10-04T10:16:30.825Z,3.83
2022-10-04T10:19:14.873Z,3.30
2022-10-04T10:21:52.197Z,1.90
2022-10-04T10:24:33.779Z,4.43
2022-10-04T10:27:08.473Z,1.10
2022-10-04T10:29:46.780Z,2.13
2022-10-04T10:32:39.688Z,1.83
2022-10-04T10:35:26.494Z,2.03
2022-10-04T10:38:04.929Z,5.93
2022-10-04T10:40:44.026Z,1.75
2022-10-04T10:43:42.250Z,1.60
2022-10-04T10:46:31.299Z,8.23
2022-10-04T10:49:21.963Z,3.00
2022-10-04T10:52:27.549Z,3.50
2022-10-04T10:55:28.034Z,3.80
2022-10-04T10:58:25.553Z,2.93
2022-10-04T11:00:54.579Z,4.60
2022-10-04T11:03:38.004Z,1.57
2022-10-04T11:06:26.369Z,2.13
2022-10-04T11:09:17.722Z,1.53
2022-10-04T11:11:59.974Z,9.03
2022-10-04T11:14:37.021Z,2.95
2022-10-04T11:17:17.086Z,5.68
2022-10-04T11:20:11.536Z,1.30
2022-10-04T11:23:24.105Z,0.80
2022-10-04T11:26:24.540Z,4.47
2022-10-04T11:28:57.822Z,5.72
2022-10-04T11:31:55.888Z,4.70
2022-10-04T11:34:47.097Z,3.13
2022-10-04T11:37:16.783Z,3.45
2022-10-04T11:39:55.105Z,2.47
2022-10-04T11:42:31.542Z,3.97
2022-10-04T11:45:15.321Z,1.15
2022-10-04T11:47:47.677Z,1.58
2022-10-04T11:50:26.168Z,5.10
2022-10-04T11:53:27.304Z,1.40
2022-10-04T11:56:28.190Z,2.05
2022-10-04T11:59:04.363Z,5.88
2022-10-04T12:02:04.362Z,5.05
2022-10-04T12:05:14.672Z,1.73
2022-10-04T12:07:50.995Z,1.55
2022-10-04T12:10:23.948Z,3.67
2022-10-04T12:13:16.373Z,6.30
2022-10-04T12:16:06.611Z,6.95
2022-10-04T12:18:45.547Z,2.45
2022-10-04T12:21:22.353Z,7.28
2022-10-04T12:24:20.059Z,6.25
2022-10-04T12:27:31.262Z,2.08
2022-10-04T12:30:24.226Z,3.35
2022-10-04T12:33:03.129Z,3.60
2022-10-04T12:35:37.009Z,5.13
2022-10-04T12:38:19.674Z,1.93
2022-10-04T12:40:49.269Z,4.40
2022-10-04T12:43:19.978Z,1.30
2022-10-04T12:45:56.997Z,2.20
2022-10-04T12:48:29.056Z,2.70
2022-10-04T12:51:09.556Z,2.27
2022-10-04T12:53:44.485Z,3.03
2022-10-04T12:56:21.945Z,1.30
2022-10-04T12:58:59.889Z,6.83
2022-10-04T13:01:30.693Z,8.90
2022-10-04T13:04:15.990Z,4.07
2022-10-04T13:06:52.061Z,3.33
2022-10-04T13:09:21.538Z,4.37
2022-10-04T13:11:56.779Z,4.88
2022-10-04T13:14:34.142Z,3.38
2022-10-04T13:17:27.714Z,3.43
2022-10-04T13:19:56.870Z,2.07
2022-10-04T13:22:55.488Z,5.10
2022-10-04T13:25:39.277Z,4.23
2022-10-04T13:28:07.924Z,7.17
2022-10-04T13:30:38.993Z,4.10
2022-10-04T13:33:12.396Z,5.30
2022-10-04T13:35:42.061Z,5.90
2022-10-04T13:38:25.306Z,3.97
2022-10-04T13:41:03.188Z,3.07
2022-10-04T13:43:55.026Z,4.63
2022-10-04T13:46:28.029Z,1.47
2022-10-04T13:49:06.263Z,2.23
2022-10-04T13:51:44.971Z,3.13
2022-10-04T13:54:40.750Z,3.03
2022-10-04T13:57:21.600Z,2.63
2022-10-04T13:59:53.685Z,3.33
2022-10-04T14:02:40.577Z,4.27
2022-10-04T14:05:25.135Z,6.43
2022-10-04T14:08:17.309Z,1.90
2022-10-04T14:11:04.654Z,3.40
2022-10-04T14:13:45.281Z,6.43
2022-10-04T14:16:23.518Z,5.50
2022-10-04T14:19:29.403Z,1.90
2022-10-04T14:22:24.772Z,3.50
2022-10-04T14:25:08.569Z,6.50
2022-10-04T14:27:51.380Z,7.43
2022-10-04T14:30:23.228Z,3.33
2022-10-04T14:33:26.150Z,3.60
2022-10-04T14:36:03.145Z,5.07
2022-10-04T14:38:40.102Z,2.80
2022-10-04T14:41:59.321Z,2.87
2022-10-04T14:45:15.418Z,2.27
2022-10-04T14:48:26.213Z,3.37
2022-10-04T14:51:16.185Z,5.43
2022-10-04T14:53:52.656Z,3.37
2022-10-04T14:56:28.625Z,8.27
2022-10-04T14:59:03.709Z,4.70
2022-10-04T15:01:33.112Z,5.00
2022-10-04T15:04:19.913Z,2.50
2022-10-04T15:06:49.864Z,3.53
2022-10-04T15:09:46.600Z,2.40
2022-10-04T15:13:09.856Z,6.47
2022-10-04T15:15:44.802Z,9.87
2022-10-04T15:18:23.344Z,7.87
2022-10-04T15:20:55.462Z,9.60
2022-10-04T15:23:40.424Z,9.20
2022-10-04T15:26:27.668Z,6.87
2022-10-04T15:29:04.499Z,6.33
2022-10-04T15:31:35.286Z,5.57
2022-10-04T15:34:06.616Z,4.17
2022-10-04T15:37:08.083Z,8.23
2022-10-04T15:39:53.440Z,7.70
2022-10-04T15:42:25.803Z,9.77
2022-10-04T15:45:21.288Z,9.67
2022-10-04T15:48:02.972Z,12.07
2022-10-04T15:50:32.085Z,6.27
2022-10-04T15:53:20.462Z,9.93
2022-10-04T15:56:13.417Z,4.30
2022-10-04T15:58:55.241Z,6.63
2022-10-04T16:01:39.487Z,7.33
2022-10-04T16:04:32.530Z,10.07
2022-10-04T16:07:02.215Z,5.70
2022-10-04T16:09:37.494Z,5.97
2022-10-04T16:12:20.039Z,7.07
2022-10-04T16:15:00.367Z,9.23
2022-10-04T16:17:46.746Z,5.90
2022-10-04T16:20:27.729Z,8.03
2022-10-04T16:23:25.178Z,4.90
2022-10-04T16:25:54.826Z,11.37
2022-10-04T16:28:28.287Z,7.97
2022-10-04T16:31:20.375Z,5.47
2022-10-04T16:33:55.612Z,8.60
2022-10-04T16:36:23.868Z,6.43
2022-10-04T16:39:12.677Z,8.07
2022-10-04T16:41:44.499Z,7.40
2022-10-04T16:44:27.741Z,8.23
2022-10-04T16:46:55.769Z,8.20
2022-10-04T16:49:26.026Z,13.27
2022-10-04T16:52:18.707Z,6.63
2022-10-04T16:54:58.812Z,10.63
2022-10-04T16:57:28.655Z,7.17
2022-10-04T17:00:05.161Z,5.87
2022-10-04T17:02:49.195Z,10.43
2022-10-04T17:05:42.388Z,8.70
2022-10-04T17:08:41.825Z,10.60
2022-10-04T17:11:18.973Z,11.93
2022-10-04T17:13:56.908Z,7.70
2022-10-04T17:16:29.109Z,10.57
2022-10-04T17:19:16.071Z,9.53
2022-10-04T17:21:48.049Z,6.37
2022-10-04T17:24:22.164Z,5.77
2022-10-04T17:26:58.985Z,14.40
2022-10-04T17:29:38.112Z,4.97
2022-10-04T17:32:16.373Z,9.57
2022-10-04T17:34:52.133Z,12.90
2022-10-04T17:37:24.917Z,9.63
2022-10-04T17:39:54.749Z,10.60
2022-10-04T17:42:30.793Z,8.70
2022-10-04T17:45:32.420Z,9.57
2022-10-04T17:48:16.705Z,14.03
2022-10-04T17:51:20.485Z,7.50
2022-10-04T17:54:07.499Z,9.73
2022-10-04T17:56:37.889Z,7.60
2022-10-04T17:59:08.756Z,12.80
2022-10-04T18:01:41.091Z,4.83
2022-10-04T18:04:10.192Z,17.57
2022-10-04T18:06:40.870Z,8.17
2022-10-04T18:09:16.096Z,7.70
2022-10-04T18:11:48.630Z,7.67
2022-10-04T18:14:39.569Z,7.40
2022-10-04T18:17:10.164Z,12.57
2022-10-04T18:19:41.718Z,14.47
2022-10-04T18:22:15.050Z,11.63
2022-10-04T18:24:43.882Z,13.37
2022-10-04T18:27:19.659Z,9.00
2022-10-04T18:30:00.703Z,10.97
2022-10-04T18:32:36.754Z,15.03
2022-10-04T18:35:25.159Z,13.60
2022-10-04T18:37:53.596Z,7.30
2022-10-04T18:40:22.548Z,10.77
2022-10-04T18:42:53.429Z,5.93
2022-10-04T18:45:23.664Z,9.30
2022-10-04T18:47:53.302Z,8.67
2022-10-04T18:50:31.820Z,14.47
2022-10-04T18:53:11.095Z,9.07
2022-10-04T18:55:42.136Z,10.37
2022-10-04T18:58:36.038Z,10.63
2022-10-04T19:01:29.558Z,9.70
2022-10-04T19:04:01.201Z,14.40
2022-10-04T19:06:30.861Z,14.23
2022-10-04T19:09:04.164Z,11.53
2022-10-04T19:11:35.933Z,10.47
2022-10-04T19:14:08.388Z,10.10
2022-10-04T19:16:41.783Z,14.70
2022-10-04T19:19:20.850Z,11.70
2022-10-04T19:21:50.854Z,8.93
2022-10-04T19:24:42.064Z,17.00
2022-10-04T19:27:18.381Z,8.70
2022-10-04T19:29:57.105Z,8.73
2022-10-04T19:32:29.455Z,11.70
2022-10-04T19:35:03.176Z,7.50
2022-10-04T19:37:32.948Z,15.33
2022-10-04T19:40:04.376Z,10.13
2022-10-04T19:42:36.142Z,15.73
2022-10-04T19:45:12.558Z,14.43
2022-10-04T19:47:44.194Z,17.80
2022-10-04T19:50:21.232Z,10.87
2022-10-04T19:52:53.479Z,14.27
2022-10-04T19:55:23.216Z,11.13
2022-10-04T19:57:53.572Z,11.63
2022-10-04T20:00:22.219Z,15.90
2022-10-04T20:02:50.353Z,10.07
2022-10-04T20:05:25.108Z,10.50
2022-10-04T20:07:54.696Z,13.60
2022-10-04T20:10:33.567Z,12.57
2022-10-04T20:13:24.435Z,11.93
2022-10-04T20:16:01.277Z,13.93
2022-10-04T20:19:00.559Z,10.77
2022-10-04T20:21:34.047Z,13.27
2022-10-04T20:24:02.525Z,13.77
2022-10-04T20:27:03.351Z,6.57
2022-10-04T20:30:09.757Z,12.07
2022-10-04T20:32:57.741Z,9.53
2022-10-04T20:36:11.291Z,11.13
2022-10-04T20:38:54.608Z,8.43
2022-10-04T20:42:02.157Z,10.57
2022-10-04T20:44:55.404Z,14.40
2022-10-04T20:47:40.266Z,9.60
2022-10-04T20:50:30.172Z,9.87
2022-10-04T20:53:08.490Z,10.53
2022-10-04T20:55:40.783Z,16.07
2022-10-04T20:58:24.325Z,11.97
2022-10-04T21:00:53.324Z,10.90
2022-10-04T21:03:21.777Z,9.67
2022-10-04T21:06:01.124Z,11.27
2022-10-04T21:08:29.165Z,11.53
2022-10-04T21:11:06.279Z,13.53
2022-10-04T21:13:44.920Z,8.47
2022-10-04T21:16:12.916Z,9.67
2022-10-04T21:18:40.841Z,16.67
2022-10-04T21:21:10.727Z,10.90
2022-10-04T21:23:38.721Z,11.93
2022-10-04T21:26:26.115Z,11.27
2022-10-04T21:28:54.221Z,10.33
2022-10-04T21:31:22.190Z,11.63
2022-10-04T21:33:50.099Z,7.87
2022-10-04T21:36:18.045Z,9.70
2022-10-04T21:38:45.941Z,14.20
2022-10-04T21:41:13.831Z,7.63
2022-10-04T21:43:43.096Z,20.30
2022-10-04T21:46:11.019Z,17.50
2022-10-04T21:48:38.998Z,10.27
2022-10-04T21:51:06.901Z,18.50
2022-10-04T21:53:34.867Z,20.47
2022-10-04T21:56:03.403Z,12.43
2022-10-04T21:58:31.308Z,9.50
2022-10-04T22:01:00.715Z,15.70
2022-10-04T22:03:28.685Z,8.93
2022-10-04T22:05:56.572Z,6.53
2022-10-04T22:08:24.620Z,16.70
2022-10-04T22:10:57.453Z,11.93
2022-10-04T22:13:26.832Z,10.33
2022-10-04T22:15:55.240Z,5.77
2022-10-04T22:18:24.556Z,13.13
2022-10-04T22:20:52.468Z,7.43
2022-10-04T22:23:21.561Z,10.40
2022-10-04T22:25:49.576Z,12.67
2022-10-04T22:28:20.552Z,9.37
2022-10-04T22:30:49.540Z,8.97
2022-10-04T22:33:28.014Z,7.70
2022-10-04T22:35:57.470Z,8.73
2022-10-04T22:38:25.569Z,7.93
2022-10-04T22:40:53.474Z,11.83
2022-10-04T22:43:21.409Z,12.03
2022-10-04T22:45:49.420Z,14.17
2022-10-04T22:48:17.339Z,18.97
2022-10-04T22:50:46.650Z,10.80
2022-10-04T22:53:17.356Z,10.77
2022-10-04T22:55:45.253Z,7.80
2022-10-04T22:58:13.519Z,10.90
2022-10-04T23:00:41.505Z,11.80
2022-10-04T23:03:17.485Z,13.13
2022-10-04T23:05:46.769Z,15.33
2022-10-04T23:08:14.825Z,11.53
2022-10-04T23:10:42.743Z,7.97
2022-10-04T23:13:13.569Z,7.97
2022-10-04T23:15:42.018Z,12.90
2022-10-04T23:18:14.425Z,10.27
2022-10-04T23:20:42.631Z,11.83
2022-10-04T23:23:17.128Z,9.10
2022-10-04T23:25:47.043Z,13.83
2022-10-04T23:28:15.872Z,9.80
2022-10-04T23:30:44.140Z,6.10
2022-10-04T23:33:14.704Z,15.17
2022-10-04T23:35:42.622Z,11.47
2022-10-04T23:38:14.109Z,10.33
2022-10-04T23:40:41.989Z,14.00
2022-10-04T23:43:11.094Z,7.80
2022-10-04T23:45:42.127Z,7.33
2022-10-04T23:48:10.176Z,11.93
2022-10-04T23:50:38.479Z,4.60
2022-10-04T23:53:07.475Z,14.27
2022-10-04T23:55:37.508Z,12.67
2022-10-04T23:58:08.662Z,6.33
